Terminal Aerodrome Forecast
Issued by NWS Jackson, MS

Home | Current Version | Previous Version | Text Only | Print | Product List | Glossary On
Versions: 1 2 3 4 5 6 7 8 9 10 11 12
000
FTUS44 KJAN 201736
TAFGLH
TAF
KGLH 201736Z 2018/2118 15009KT P6SM SKC
     FM210300 19005KT 5SM SHRA BR BKN025 OVC050
     FM210900 31007KT 6SM -RA BR BKN015 OVC060
     FM211500 11006KT P6SM SHRA BKN008 OVC050=

USA.gov is the U.S. government's official web portal to all federal, state and local government web resources and services.